Time;durP1;ratioP1;P1;durP2;ratioP2;P2;SDS_P1;SDS_P2;PMS_P1;PMS_P2;Temp;Humidity;BMP_temperature;BMP_pressure;BME280_temperature;BME280_humidity;BME280_pressure;Samples;Min_cycle;Max_cycle;Signal;HPM_P1;HPM_P2
2023/04/13 00:00:24;;;;;;;0.55;0.55;;;;;;;5.66;91.96;95768.72;29395;213;63004;-58
2023/04/13 00:00:56;;;;;;;0.60;0.60;;;;;;;5.66;92.63;95770.63;29395;212;63009;-56
2023/04/13 00:01:27;;;;;;;0.50;0.50;;;;;;;5.65;92.49;95766.31;29395;202;63000;-56
2023/04/13 00:01:58;;;;;;;0.60;0.60;;;;;;;5.64;92.66;95770.91;29395;240;63008;-56
2023/04/13 00:02:32;;;;;;;0.50;0.50;;;;;;;5.64;92.76;95764.72;29395;220;63004;-57
2023/04/13 00:03:04;;;;;;;0.52;0.52;;;;;;;5.64;93.04;95775.47;29395;204;63017;-57
2023/04/13 00:03:35;;;;;;;0.50;0.50;;;;;;;5.64;92.74;95770.09;29395;222;63005;-57
2023/04/13 00:04:06;;;;;;;0.60;0.60;;;;;;;5.62;93.00;95772.28;29394;203;64006;-56
2023/04/13 00:04:38;;;;;;;0.50;0.50;;;;;;;5.61;92.94;95770.69;29395;222;63005;-57
2023/04/13 00:05:10;;;;;;;0.60;0.60;;;;;;;5.60;92.96;95769.88;29395;247;63009;-58
2023/04/13 00:05:43;;;;;;;0.50;0.50;;;;;;;5.59;92.82;95776.34;29395;197;63005;-57
2023/04/13 00:06:14;;;;;;;0.60;0.60;;;;;;;5.57;92.63;95775.03;29395;293;63009;-57
2023/04/13 00:06:45;;;;;;;0.57;0.57;;;;;;;5.55;92.29;95777.19;29395;231;63009;-57
2023/04/13 00:07:17;;;;;;;0.60;0.60;;;;;;;5.52;92.35;95778.59;29395;263;63009;-60
2023/04/13 00:07:49;;;;;;;0.60;0.60;;;;;;;5.51;92.50;95770.81;29395;281;63004;-56
2023/04/13 00:08:21;;;;;;;0.50;0.50;;;;;;;5.50;92.72;95774.59;29394;251;64013;-57
2023/04/13 00:08:54;;;;;;;0.60;0.60;;;;;;;5.50;92.49;95778.09;29395;214;63007;-61
2023/04/13 00:09:30;;;;;;;0.60;0.60;;;;;;;5.51;92.57;95776.19;29395;206;63008;-57
2023/04/13 00:10:07;;;;;;;0.60;0.60;;;;;;;5.51;92.41;95781.59;29395;221;63008;-57
2023/04/13 00:10:42;;;;;;;0.60;0.60;;;;;;;5.51;92.42;95782.38;29395;204;63009;-58
2023/04/13 00:11:13;;;;;;;0.50;0.50;;;;;;;5.50;92.33;95779.97;29395;203;63005;-57
2023/04/13 00:11:45;;;;;;;0.60;0.60;;;;;;;5.53;92.70;95779.41;29395;272;63009;-58
2023/04/13 00:12:20;;;;;;;0.60;0.60;;;;;;;5.53;91.98;95782.09;29395;224;63005;-59
2023/04/13 00:12:54;;;;;;;0.50;0.50;;;;;;;5.54;91.95;95786.41;29395;204;63009;-57
2023/04/13 00:13:25;;;;;;;0.60;0.60;;;;;;;5.53;91.68;95790.16;29394;224;63999;-57
2023/04/13 00:13:57;;;;;;;0.60;0.60;;;;;;;5.54;91.17;95789.09;29395;223;63009;-57
2023/04/13 00:14:34;;;;;;;0.60;0.60;;;;;;;5.54;91.19;95786.41;29395;243;63004;-58
2023/04/13 00:15:07;;;;;;;0.60;0.60;;;;;;;5.58;91.25;95790.09;29395;220;63009;-58
2023/04/13 00:15:41;;;;;;;0.50;0.50;;;;;;;5.59;90.86;95792.50;29395;265;63004;-58
2023/04/13 00:16:17;;;;;;;0.50;0.50;;;;;;;5.58;90.75;95785.50;29395;204;63009;-57
2023/04/13 00:16:50;;;;;;;0.60;0.60;;;;;;;5.58;90.83;95790.09;29395;217;63004;-56
2023/04/13 00:17:23;;;;;;;0.50;0.50;;;;;;;5.56;91.03;95789.56;29395;237;63009;-61
2023/04/13 00:17:55;;;;;;;0.50;0.50;;;;;;;5.54;90.54;95791.78;29395;202;63005;-63
2023/04/13 00:18:26;;;;;;;0.60;0.60;;;;;;;5.57;90.37;95785.78;29394;204;64014;-57
2023/04/13 00:18:57;;;;;;;0.60;0.60;;;;;;;5.62;89.73;95791.13;29395;213;63005;-57
2023/04/13 00:19:35;;;;;;;0.60;0.60;;;;;;;5.68;89.43;95798.03;29395;345;63009;-57
2023/04/13 00:20:11;;;;;;;0.60;0.60;;;;;;;5.67;88.99;95807.19;29395;213;63005;-57
2023/04/13 00:20:43;;;;;;;0.60;0.60;;;;;;;5.63;89.52;95801.59;29395;235;63014;-56
2023/04/13 00:21:15;;;;;;;0.50;0.50;;;;;;;5.60;90.03;95807.53;29395;246;63005;-57
2023/04/13 00:21:47;;;;;;;0.55;0.55;;;;;;;5.58;89.85;95815.09;29395;304;63009;-57
2023/04/13 00:22:19;;;;;;;0.60;0.60;;;;;;;5.59;89.59;95805.16;29395;198;63004;-57
2023/04/13 00:22:50;;;;;;;0.60;0.60;;;;;;;5.57;89.70;95801.94;29395;283;63009;-57
2023/04/13 00:23:22;;;;;;;0.60;0.60;;;;;;;5.52;89.69;95799.31;29395;241;63014;-56
2023/04/13 00:23:53;;;;;;;0.50;0.50;;;;;;;5.48;90.37;95803.69;29394;210;64013;-57
2023/04/13 00:24:25;;;;;;;0.52;0.52;;;;;;;5.43;90.68;95803.72;29395;222;63016;-57
2023/04/13 00:24:58;;;;;;;0.60;0.60;;;;;;;5.39;91.19;95807.00;29395;249;63009;-57
2023/04/13 00:25:30;;;;;;;0.60;0.60;;;;;;;5.32;91.40;95801.16;29395;214;63005;-60
2023/04/13 00:26:01;;;;;;;0.55;0.55;;;;;;;5.31;91.60;95794.16;29394;333;64014;-57
2023/04/13 00:26:33;;;;;;;0.50;0.50;;;;;;;5.30;91.72;95795.25;29395;207;63005;-58
2023/04/13 00:27:04;;;;;;;0.50;0.50;;;;;;;5.34;91.79;95798.97;29395;222;63014;-57
2023/04/13 00:27:39;;;;;;;0.60;0.60;;;;;;;5.37;91.36;95792.22;29395;211;63005;-57
2023/04/13 00:28:11;;;;;;;0.52;0.52;;;;;;;5.39;91.13;95796.22;29395;252;63009;-57
2023/04/13 00:28:42;;;;;;;0.60;0.60;;;;;;;5.45;90.49;95793.50;29395;281;63005;-58
2023/04/13 00:29:13;;;;;;;0.60;0.60;;;;;;;5.46;90.30;95795.09;29395;290;63009;-57
2023/04/13 00:29:45;;;;;;;0.60;0.60;;;;;;;5.44;90.11;95787.31;29395;212;63008;-57
2023/04/13 00:30:16;;;;;;;0.60;0.60;;;;;;;5.43;90.37;95790.28;29395;230;63009;-57
2023/04/13 00:30:48;;;;;;;0.50;0.50;;;;;;;5.41;90.44;95787.88;29394;207;64009;-57
2023/04/13 00:31:19;;;;;;;0.60;0.60;;;;;;;5.43;90.33;95784.91;29394;231;64013;-56
2023/04/13 00:31:51;;;;;;;0.50;0.50;;;;;;;5.43;91.95;95790.28;29395;282;63004;-57
2023/04/13 00:32:24;;;;;;;0.60;0.60;;;;;;;5.43;92.38;95784.91;29395;196;63008;-57
2023/04/13 00:32:55;;;;;;;0.60;0.60;;;;;;;5.41;92.29;95793.25;29395;233;63017;-61
2023/04/13 00:33:26;;;;;;;0.60;0.60;;;;;;;5.41;92.15;95781.69;29395;200;63009;-57
2023/04/13 00:33:57;;;;;;;0.60;0.60;;;;;;;5.43;91.18;95784.91;29395;291;63005;-56
2023/04/13 00:34:29;;;;;;;0.55;0.55;;;;;;;5.47;90.14;95794.00;29395;251;63009;-57
2023/04/13 00:35:01;;;;;;;0.60;0.60;;;;;;;5.49;89.67;95789.94;29395;213;63005;-57
2023/04/13 00:35:33;;;;;;;0.50;0.50;;;;;;;5.51;89.62;95785.06;29395;204;63009;-57
2023/04/13 00:36:08;;;;;;;0.52;0.52;;;;;;;5.51;89.33;95792.34;29395;212;63005;-58
2023/04/13 00:36:40;;;;;;;0.57;0.57;;;;;;;5.49;89.36;95789.13;29394;220;64013;-56
2023/04/13 00:37:13;;;;;;;0.60;0.60;;;;;;;5.48;89.55;95792.91;29395;213;63004;-58
2023/04/13 00:37:46;;;;;;;0.50;0.50;;;;;;;5.48;90.21;95787.53;29395;210;63009;-57
2023/04/13 00:38:18;;;;;;;0.60;0.60;;;;;;;5.47;90.41;95792.13;29395;202;63010;-59
2023/04/13 00:38:53;;;;;;;0.57;0.57;;;;;;;5.48;90.26;95787.53;29395;234;63009;-59
2023/04/13 00:39:29;;;;;;;0.50;0.50;;;;;;;5.52;89.25;95788.56;29395;206;63017;-58
2023/04/13 00:40:04;;;;;;;0.50;0.50;;;;;;;5.52;89.32;95788.56;29395;215;63009;-57
2023/04/13 00:40:36;;;;;;;0.50;0.50;;;;;;;5.51;89.25;95792.34;29394;359;64009;-56
2023/04/13 00:41:07;;;;;;;0.60;0.60;;;;;;;5.50;89.29;95791.53;29395;204;63009;-56
2023/04/13 00:41:39;;;;;;;0.60;0.60;;;;;;;5.50;89.42;95790.75;29395;241;63005;-57
2023/04/13 00:42:10;;;;;;;0.50;0.50;;;;;;;5.47;90.19;95792.13;29395;339;63009;-57
2023/04/13 00:42:46;;;;;;;0.60;0.60;;;;;;;5.46;89.97;95790.50;29395;210;63005;-57
2023/04/13 00:43:20;;;;;;;0.50;0.50;;;;;;;5.46;90.17;95795.09;29395;226;63024;-59
2023/04/13 00:43:52;;;;;;;0.60;0.60;;;;;;;5.45;90.49;95788.09;29395;235;63005;-57
2023/04/13 00:44:23;;;;;;;0.50;0.50;;;;;;;5.46;91.32;95790.50;29395;205;63009;-57
2023/04/13 00:44:55;;;;;;;0.50;0.50;;;;;;;5.44;91.21;95786.50;29395;249;63004;-57
2023/04/13 00:45:27;;;;;;;0.50;0.50;;;;;;;5.42;91.47;95781.41;29395;204;63009;-57
2023/04/13 00:45:59;;;;;;;0.50;0.50;;;;;;;5.42;90.99;95783.31;29394;198;64009;-57
2023/04/13 00:46:30;;;;;;;0.50;0.50;;;;;;;5.41;90.32;95779.00;29395;223;63009;-57
2023/04/13 00:47:03;;;;;;;0.50;0.50;;;;;;;5.42;90.15;95780.59;29395;287;63004;-57
2023/04/13 00:47:35;;;;;;;0.50;0.50;;;;;;;5.43;90.15;95779.53;29395;204;63009;-57
2023/04/13 00:48:10;;;;;;;0.50;0.50;;;;;;;5.45;89.83;95780.84;29395;320;63005;-57
2023/04/13 00:48:42;;;;;;;0.52;0.52;;;;;;;5.47;89.69;95777.87;29395;228;63009;-57
2023/04/13 00:49:15;;;;;;;0.50;0.50;;;;;;;5.48;89.60;95774.09;29395;259;63005;-57
2023/04/13 00:49:47;;;;;;;0.60;0.60;;;;;;;5.46;90.03;95779.75;29395;315;63009;-58
2023/04/13 00:50:19;;;;;;;0.60;0.60;;;;;;;5.45;89.91;95788.09;29395;259;63005;-56
2023/04/13 00:50:51;;;;;;;0.50;0.50;;;;;;;5.45;90.10;95782.72;29395;264;63009;-56
2023/04/13 00:51:22;;;;;;;0.60;0.60;;;;;;;5.43;90.34;95779.53;29394;235;64009;-60
2023/04/13 00:51:53;;;;;;;0.50;0.50;;;;;;;5.45;90.34;95782.72;29394;291;64013;-56
2023/04/13 00:52:25;;;;;;;0.50;0.50;;;;;;;5.44;89.99;95781.94;29395;197;63004;-56
2023/04/13 00:52:57;;;;;;;0.50;0.50;;;;;;;5.43;90.35;95784.91;29395;210;63009;-57
2023/04/13 00:53:28;;;;;;;0.60;0.60;;;;;;;5.42;90.28;95777.91;29395;286;63004;-57
2023/04/13 00:54:00;;;;;;;0.60;0.60;;;;;;;5.45;90.44;95785.41;29395;202;63009;-56
2023/04/13 00:54:34;;;;;;;0.50;0.50;;;;;;;5.46;89.96;95781.62;29395;220;63004;-57
2023/04/13 00:55:07;;;;;;;0.60;0.60;;;;;;;5.45;89.65;95785.41;29395;247;63008;-57
2023/04/13 00:55:40;;;;;;;0.50;0.50;;;;;;;5.43;89.87;95787.59;29395;204;63005;-57
2023/04/13 00:56:12;;;;;;;0.50;0.50;;;;;;;5.42;90.37;95777.91;29395;227;63009;-56
2023/04/13 00:56:44;;;;;;;0.52;0.52;;;;;;;5.41;90.21;95777.13;29395;218;63005;-56
2023/04/13 00:57:19;;;;;;;0.60;0.60;;;;;;;5.40;90.88;95775.50;29394;227;64013;-56
2023/04/13 00:57:51;;;;;;;0.60;0.60;;;;;;;5.38;90.52;95773.09;29395;228;63005;-57
2023/04/13 00:58:23;;;;;;;0.60;0.60;;;;;;;5.38;90.53;95773.09;29394;327;64013;-57
2023/04/13 00:58:56;;;;;;;0.60;0.60;;;;;;;5.38;90.79;95773.09;29395;243;63005;-58
2023/04/13 00:59:29;;;;;;;0.60;0.60;;;;;;;5.44;90.91;95770.37;29395;202;63025;-57
2023/04/13 01:00:08;;;;;;;0.50;0.50;;;;;;;5.45;89.61;95771.97;29395;225;63004;-57
2023/04/13 01:00:41;;;;;;;0.60;0.60;;;;;;;5.46;89.30;95773.56;29395;218;63009;-57
2023/04/13 01:01:13;;;;;;;0.50;0.50;;;;;;;5.46;89.03;95768.19;29395;244;63004;-56
2023/04/13 01:01:49;;;;;;;0.60;0.60;;;;;;;5.44;89.13;95776.53;29395;204;63009;-57
2023/04/13 01:02:25;;;;;;;0.50;0.50;;;;;;;5.41;88.62;95776.31;29395;365;63008;-56
2023/04/13 01:03:00;;;;;;;0.60;0.60;;;;;;;5.37;88.78;95782.25;29395;223;63009;-57
2023/04/13 01:03:31;;;;;;;0.50;0.50;;;;;;;5.36;88.81;95786.03;29394;199;64009;-60
2023/04/13 01:04:04;;;;;;;0.60;0.60;;;;;;;5.35;89.27;95784.44;29395;204;63009;-56
2023/04/13 01:04:36;;;;;;;0.60;0.60;;;;;;;5.36;89.03;95785.25;29395;226;63005;-56
2023/04/13 01:05:11;;;;;;;0.50;0.50;;;;;;;5.35;90.01;95789.00;29395;223;63009;-61
2023/04/13 01:06:23;;;;;;;0.60;0.60;;;;;;;5.32;90.04;95778.81;29395;212;63005;-57
2023/04/13 01:07:07;;;;;;;0.60;0.60;;;;;;;5.27;89.66;95786.94;29417;252;63017;-56
2023/04/13 01:08:01;;;;;;;0.60;0.60;;;;;;;5.27;90.01;95793.13;29395;227;63004;-56
2023/04/13 01:08:41;;;;;;;0.60;0.60;;;;;;;5.27;90.29;95786.94;29394;214;64013;-56
2023/04/13 01:09:24;;;;;;;0.60;0.60;;;;;;;5.26;89.95;95791.53;29395;203;63004;-58
2023/04/13 01:11:02;;;;;;;0.60;0.60;;;;;;;5.30;89.88;95795.25;29394;207;64005;-60
2023/04/13 01:11:59;;;;;;;0.60;0.60;;;;;;;5.32;88.99;95803.03;29395;351;63005;-56
2023/04/13 01:13:21;;;;;;;0.60;0.60;;;;;;;5.29;89.65;95801.72;29395;231;63027;-56
2023/04/13 01:14:02;;;;;;;0.60;0.60;;;;;;;5.25;89.60;95795.31;29417;231;63004;-56
2023/04/13 01:14:46;;;;;;;0.50;0.50;;;;;;;5.23;89.64;95794.78;29439;197;63009;-57
2023/04/13 01:15:18;;;;;;;0.60;0.60;;;;;;;5.22;89.96;95795.88;29371;209;64009;-57
2023/04/13 01:16:02;;;;;;;0.50;0.50;;;;;;;5.26;88.83;95799.59;29395;197;63009;-57
2023/04/13 01:16:49;;;;;;;0.50;0.50;;;;;;;5.25;88.60;95787.22;29395;353;63004;-56
2023/04/13 01:17:27;;;;;;;0.50;0.50;;;;;;;5.27;88.52;95793.13;29395;225;63009;-57
2023/04/13 01:18:06;;;;;;;0.50;0.50;;;;;;;5.23;88.18;95797.47;29395;199;63005;-57
2023/04/13 01:18:40;;;;;;;0.60;0.60;;;;;;;5.15;88.47;95790.06;29395;213;63016;-56
2023/04/13 01:19:39;;;;;;;0.50;0.50;;;;;;;5.13;88.49;95781.47;29395;203;63005;-56
2023/04/13 01:20:14;;;;;;;0.60;0.60;;;;;;;5.12;89.11;95785.25;29394;286;64013;-57
2023/04/13 01:20:48;;;;;;;0.60;0.60;;;;;;;5.13;88.86;95786.03;29395;202;63005;-57
2023/04/13 01:21:24;;;;;;;0.60;0.60;;;;;;;5.12;88.81;95789.81;29395;212;63009;-56
2023/04/13 01:21:56;;;;;;;0.50;0.50;;;;;;;5.09;88.49;95791.19;29395;224;63004;-57
2023/04/13 01:22:30;;;;;;;0.60;0.60;;;;;;;5.09;88.75;95791.19;29395;220;63009;-61
2023/04/13 01:23:08;;;;;;;0.60;0.60;;;;;;;5.10;88.71;95792.78;29394;224;64009;-56
2023/04/13 01:24:25;;;;;;;0.50;0.50;;;;;;;5.04;88.99;95783.16;29395;217;63023;-56
2023/04/13 01:25:36;;;;;;;0.60;0.60;;;;;;;5.02;88.96;95779.97;29395;205;63005;-59
2023/04/13 01:26:08;;;;;;;0.60;0.60;;;;;;;5.02;88.59;95785.34;29395;227;63009;-57
2023/04/13 01:26:57;;;;;;;0.60;0.60;;;;;;;5.05;88.23;95779.41;29395;197;63005;-58
2023/04/13 01:27:57;;;;;;;0.60;0.60;;;;;;;5.07;88.00;95785.28;29395;261;63009;-57
2023/04/13 01:28:31;;;;;;;0.60;0.60;;;;;;;5.07;88.31;95787.19;29394;206;64009;-56
2023/04/13 01:29:03;;;;;;;0.60;0.60;;;;;;;5.06;88.12;95775.62;29394;202;64013;-56
2023/04/13 01:29:36;;;;;;;0.50;0.50;;;;;;;5.03;87.90;95777.00;29395;243;63004;-56
2023/04/13 01:30:09;;;;;;;0.50;0.50;;;;;;;5.02;88.62;95779.97;29394;218;64013;-57
2023/04/13 01:30:41;;;;;;;0.60;0.60;;;;;;;5.00;88.48;95784.81;29395;220;63004;-62
2023/04/13 01:31:14;;;;;;;0.60;0.60;;;;;;;5.03;88.45;95782.38;29395;202;63008;-57
2023/04/13 01:31:45;;;;;;;0.60;0.60;;;;;;;5.08;87.52;95784.19;29395;224;63004;-57
2023/04/13 01:32:17;;;;;;;0.60;0.60;;;;;;;5.08;87.70;95783.41;29395;212;63009;-57
2023/04/13 01:32:51;;;;;;;0.50;0.50;;;;;;;5.06;87.64;95770.25;29395;250;63005;-57
2023/04/13 01:33:24;;;;;;;0.60;0.60;;;;;;;5.08;87.73;95780.72;29395;249;63009;-57
2023/04/13 01:33:55;;;;;;;0.60;0.60;;;;;;;5.12;86.84;95774.47;29395;290;63005;-57
2023/04/13 01:34:28;;;;;;;0.60;0.60;;;;;;;5.16;86.64;95774.72;29395;288;63009;-57
2023/04/13 01:34:59;;;;;;;0.60;0.60;;;;;;;5.15;86.29;95776.59;29394;294;64009;-57
2023/04/13 01:35:32;;;;;;;0.57;0.57;;;;;;;5.12;86.69;95776.38;29394;226;64013;-56
2023/04/13 01:36:04;;;;;;;0.50;0.50;;;;;;;5.08;86.47;95784.19;29395;213;63005;-56
2023/04/13 01:36:39;;;;;;;0.60;0.60;;;;;;;5.10;86.73;95775.84;29395;205;63009;-58
2023/04/13 01:37:11;;;;;;;0.60;0.60;;;;;;;5.12;86.60;95777.19;29395;239;63004;-57
2023/04/13 01:37:42;;;;;;;0.50;0.50;;;;;;;5.15;86.52;95773.91;29394;291;64013;-57
2023/04/13 01:38:14;;;;;;;0.60;0.60;;;;;;;5.13;86.09;95775.28;29395;258;63004;-57
2023/04/13 01:38:45;;;;;;;0.60;0.60;;;;;;;5.10;86.34;95776.66;29395;205;63008;-57
2023/04/13 01:39:20;;;;;;;0.60;0.60;;;;;;;5.07;86.61;95774.53;29394;196;64008;-56
2023/04/13 01:39:51;;;;;;;0.60;0.60;;;;;;;5.10;86.27;95776.66;29395;330;63009;-57
2023/04/13 01:40:25;;;;;;;0.50;0.50;;;;;;;5.11;86.36;95778.25;29395;309;63005;-57
2023/04/13 01:40:57;;;;;;;0.60;0.60;;;;;;;5.10;86.59;95775.84;29395;234;63009;-57
2023/04/13 01:41:28;;;;;;;0.50;0.50;;;;;;;5.06;86.63;95778.31;29395;236;63010;-57
2023/04/13 01:42:00;;;;;;;0.60;0.60;;;;;;;5.07;86.57;95777.22;29395;198;63009;-56
2023/04/13 01:42:32;;;;;;;0.70;0.70;;;;;;;5.16;86.17;95780.91;29395;231;63005;-57
2023/04/13 01:43:03;;;;;;;0.50;0.50;;;;;;;5.19;85.79;95780.34;29395;206;63009;-57
2023/04/13 01:43:36;;;;;;;0.60;0.60;;;;;;;5.19;85.58;95774.16;29395;236;63009;-57
2023/04/13 01:44:08;;;;;;;0.57;0.57;;;;;;;5.17;85.92;95777.13;29394;284;64013;-56
2023/04/13 01:44:39;;;;;;;0.60;0.60;;;;;;;5.14;85.65;95772.31;29394;200;64009;-57
2023/04/13 01:45:19;;;;;;;0.50;0.50;;;;;;;5.10;85.73;95776.66;29395;284;63009;-57
2023/04/13 01:46:08;;;;;;;0.60;0.60;;;;;;;5.06;85.75;95772.94;29417;202;63004;-56
2023/04/13 01:46:45;;;;;;;0.52;0.52;;;;;;;5.07;86.17;95774.53;29395;228;63008;-57
2023/04/13 01:47:21;;;;;;;0.60;0.60;;;;;;;5.05;85.81;95774.00;29395;232;63005;-56
2023/04/13 01:48:33;;;;;;;0.50;0.50;;;;;;;5.05;85.67;95768.63;29395;247;63009;-57
2023/04/13 01:49:06;;;;;;;0.50;0.50;;;;;;;5.04;86.18;95764.34;29394;239;64005;-57
2023/04/13 01:49:38;;;;;;;0.60;0.60;;;;;;;5.05;86.30;95765.94;29394;211;64013;-57
2023/04/13 01:50:30;;;;;;;0.60;0.60;;;;;;;5.08;85.36;95761.88;29395;202;63005;-61
2023/04/13 01:51:21;;;;;;;0.50;0.50;;;;;;;5.09;85.21;95764.28;29394;218;64013;-57
2023/04/13 01:51:55;;;;;;;0.60;0.60;;;;;;;5.09;85.04;95769.69;29417;203;63004;-57
2023/04/13 01:52:28;;;;;;;0.60;0.60;;;;;;;5.06;85.04;95759.50;29395;242;63009;-58
2023/04/13 01:53:14;;;;;;;0.60;0.60;;;;;;;5.09;84.56;95764.28;29395;210;63017;-57
2023/04/13 01:54:12;;;;;;;0.50;0.50;;;;;;;5.10;85.34;95760.53;29395;214;63009;-57
2023/04/13 01:54:46;;;;;;;0.60;0.60;;;;;;;5.10;85.10;95760.53;29395;225;63005;-58
2023/04/13 01:55:21;;;;;;;0.60;0.60;;;;;;;5.05;84.83;95758.69;29395;239;63009;-57
2023/04/13 01:55:52;;;;;;;0.60;0.60;;;;;;;5.05;85.10;95760.56;29394;214;64009;-57
2023/04/13 01:56:25;;;;;;;0.50;0.50;;;;;;;5.03;85.15;95754.69;29394;219;64013;-57
2023/04/13 01:56:58;;;;;;;0.60;0.60;;;;;;;5.04;84.96;95761.66;29395;270;63005;-57
2023/04/13 01:57:31;;;;;;;0.60;0.60;;;;;;;5.06;84.95;95762.19;29395;207;63026;-57
2023/04/13 01:58:03;;;;;;;0.50;0.50;;;;;;;5.07;84.89;95765.66;29395;238;63004;-57
2023/04/13 01:58:36;;;;;;;0.60;0.60;;;;;;;5.05;85.17;95769.44;29395;335;63028;-56
2023/04/13 01:59:09;;;;;;;0.60;0.60;;;;;;;5.05;85.54;95763.25;29373;211;63004;-57
2023/04/13 01:59:40;;;;;;;0.60;0.60;;;;;;;5.08;85.16;95761.88;29394;221;64013;-57
2023/04/13 02:00:13;;;;;;;0.60;0.60;;;;;;;5.05;84.69;95763.25;29394;254;64009;-57
2023/04/13 02:00:45;;;;;;;0.50;0.50;;;;;;;5.02;85.08;95764.63;29373;215;63008;-56
2023/04/13 02:01:17;;;;;;;0.60;0.60;;;;;;;4.96;85.42;95762.28;29395;197;63004;-56
2023/04/13 02:01:48;;;;;;;0.50;0.50;;;;;;;4.91;85.78;95762.31;29395;196;63008;-57
2023/04/13 02:02:19;;;;;;;0.60;0.60;;;;;;;4.87;86.16;95761.28;29395;252;63005;-57
2023/04/13 02:02:53;;;;;;;0.57;0.57;;;;;;;4.86;86.26;95765.84;29395;313;63017;-57
2023/04/13 02:03:24;;;;;;;0.60;0.60;;;;;;;4.87;86.00;95763.97;29395;301;63018;-57
2023/04/13 02:03:56;;;;;;;0.50;0.50;;;;;;;4.89;85.86;95759.91;29395;213;63009;-57
2023/04/13 02:04:28;;;;;;;0.50;0.50;;;;;;;4.89;85.50;95759.91;29395;212;63005;-57
2023/04/13 02:04:59;;;;;;;0.60;0.60;;;;;;;4.93;85.47;95765.53;29394;211;64013;-57
2023/04/13 02:05:32;;;;;;;0.60;0.60;;;;;;;4.93;85.45;95760.16;29395;209;63005;-56
2023/04/13 02:06:06;;;;;;;0.50;0.50;;;;;;;4.92;85.69;95762.03;29394;222;64013;-57
2023/04/13 02:06:38;;;;;;;0.60;0.60;;;;;;;4.92;85.40;95766.62;29394;202;64009;-55
2023/04/13 02:07:11;;;;;;;0.60;0.60;;;;;;;4.89;85.64;95754.53;29395;218;63009;-57
2023/04/13 02:07:43;;;;;;;0.50;0.50;;;;;;;4.87;86.23;95762.09;29395;198;63004;-57
2023/04/13 02:08:19;;;;;;;0.60;0.60;;;;;;;4.86;86.71;95765.06;29395;229;63022;-57
2023/04/13 02:08:50;;;;;;;0.57;0.57;;;;;;;4.85;86.73;95763.47;29395;241;63004;-58
2023/04/13 02:09:21;;;;;;;0.60;0.60;;;;;;;4.87;85.85;95758.59;29395;209;63009;-57
2023/04/13 02:09:53;;;;;;;0.60;0.60;;;;;;;4.87;85.65;95756.72;29394;214;64009;-57
2023/04/13 02:10:28;;;;;;;0.60;0.60;;;;;;;4.92;85.09;95758.53;29395;206;63009;-58
2023/04/13 02:11:00;;;;;;;0.60;0.60;;;;;;;4.91;84.90;95757.75;29395;319;63005;-57
2023/04/13 02:11:33;;;;;;;0.60;0.60;;;;;;;4.92;85.29;95759.34;29395;213;63009;-57
2023/04/13 02:12:05;;;;;;;0.55;0.55;;;;;;;4.95;84.94;95756.09;29395;245;63005;-57
2023/04/13 02:12:36;;;;;;;0.50;0.50;;;;;;;4.98;84.67;95752.03;29395;226;63009;-56
2023/04/13 02:13:10;;;;;;;0.60;0.60;;;;;;;4.99;84.83;95753.63;29395;211;63004;-56
2023/04/13 02:13:42;;;;;;;0.60;0.60;;;;;;;5.03;84.88;95760.06;29395;220;63009;-58
2023/04/13 02:14:14;;;;;;;0.60;0.60;;;;;;;5.07;83.97;95758.41;29395;270;63004;-57
2023/04/13 02:14:45;;;;;;;0.52;0.52;;;;;;;5.06;84.28;95759.50;29395;204;63009;-58
2023/04/13 02:15:18;;;;;;;0.50;0.50;;;;;;;5.05;84.22;95760.56;29394;344;64009;-57
2023/04/13 02:15:51;;;;;;;0.60;0.60;;;;;;;5.02;84.36;95756.56;29395;197;63008;-62
2023/04/13 02:16:22;;;;;;;0.52;0.52;;;;;;;5.00;84.51;95760.63;29395;237;63004;-56
2023/04/13 02:16:53;;;;;;;0.60;0.60;;;;;;;4.97;84.66;95761.19;29395;284;63009;-57
2023/04/13 02:17:25;;;;;;;0.50;0.50;;;;;;;4.97;84.70;95759.31;29395;272;63005;-56
2023/04/13 02:17:57;;;;;;;0.60;0.60;;;;;;;4.97;85.01;95758.50;29394;237;64006;-56
2023/04/13 02:18:29;;;;;;;0.60;0.60;;;;;;;4.95;85.40;95761.47;29394;216;64009;-57
2023/04/13 02:19:00;;;;;;;0.70;0.70;;;;;;;5.01;85.22;95759.53;29395;233;63009;-58
2023/04/13 02:19:35;;;;;;;0.60;0.60;;;;;;;5.03;84.49;95762.75;29395;219;63005;-57
2023/04/13 02:20:11;;;;;;;0.52;0.52;;;;;;;5.04;84.31;95756.28;29395;225;63009;-57
2023/04/13 02:20:42;;;;;;;0.60;0.60;;;;;;;5.05;84.43;95760.56;29395;196;63004;-63
2023/04/13 02:21:15;;;;;;;0.60;0.60;;;;;;;5.09;83.96;95766.19;29395;206;63009;-57
2023/04/13 02:21:46;;;;;;;0.60;0.60;;;;;;;5.08;83.80;95761.88;29395;296;63016;-58
2023/04/13 02:22:18;;;;;;;0.60;0.60;;;;;;;5.12;84.09;95760.25;29395;210;63009;-57
2023/04/13 02:22:49;;;;;;;0.60;0.60;;;;;;;5.16;84.32;95766.66;29394;202;63999;-61
2023/04/13 02:23:20;;;;;;;0.50;0.50;;;;;;;5.16;84.05;95758.59;29395;215;63008;-57
2023/04/13 02:23:51;;;;;;;0.60;0.60;;;;;;;5.14;83.79;95756.19;29395;215;63004;-57
2023/04/13 02:24:23;;;;;;;0.60;0.60;;;;;;;5.17;84.21;95766.38;29395;218;63009;-59
2023/04/13 02:24:55;;;;;;;0.60;0.60;;;;;;;5.18;83.67;95765.28;29395;202;63005;-57
2023/04/13 02:25:27;;;;;;;0.50;0.50;;;;;;;5.20;83.85;95760.38;29395;203;63025;-56
2023/04/13 02:25:58;;;;;;;0.60;0.60;;;;;;;5.17;83.82;95765.56;29395;220;63012;-57
2023/04/13 02:26:29;;;;;;;0.50;0.50;;;;;;;5.14;84.35;95772.31;29395;232;63023;-58
2023/04/13 02:27:01;;;;;;;0.50;0.50;;;;;;;5.14;84.19;95755.37;29394;298;64009;-63
2023/04/13 02:27:37;;;;;;;0.60;0.60;;;;;;;5.14;84.23;95756.19;29395;235;63009;-59
2023/04/13 02:28:10;;;;;;;0.50;0.50;;;;;;;5.19;84.08;95764.19;29395;202;63005;-57
2023/04/13 02:28:42;;;;;;;0.60;0.60;;;;;;;5.18;83.68;95773.34;29394;210;64013;-57
2023/04/13 02:29:13;;;;;;;0.60;0.60;;;;;;;5.14;84.15;95766.94;29395;218;63004;-57
2023/04/13 02:29:45;;;;;;;0.60;0.60;;;;;;;5.13;84.22;95762.66;29395;202;63009;-57
2023/04/13 02:30:16;;;;;;;0.60;0.60;;;;;;;5.12;84.37;95761.03;29395;213;63004;-57
2023/04/13 02:30:48;;;;;;;0.60;0.60;;;;;;;5.13;84.58;95754.56;29395;223;63008;-56
2023/04/13 02:31:22;;;;;;;0.60;0.60;;;;;;;5.16;83.97;95761.28;29394;247;64004;-58
2023/04/13 02:31:53;;;;;;;0.50;0.50;;;;;;;5.16;84.02;95759.38;29395;210;63022;-59
2023/04/13 02:32:24;;;;;;;0.60;0.60;;;;;;;5.19;83.93;95758.00;29394;204;64005;-58
2023/04/13 02:32:55;;;;;;;0.60;0.60;;;;;;;5.21;83.91;95756.63;29394;214;64014;-56
2023/04/13 02:33:30;;;;;;;0.57;0.57;;;;;;;5.24;83.48;95760.63;29395;209;63005;-57
2023/04/13 02:34:01;;;;;;;0.60;0.60;;;;;;;5.18;84.01;95757.22;29395;199;63009;-57
2023/04/13 02:34:32;;;;;;;0.50;0.50;;;;;;;5.18;83.87;95759.09;29395;198;63005;-59
2023/04/13 02:35:05;;;;;;;0.60;0.60;;;;;;;5.15;83.94;95768.53;29395;203;63009;-57
2023/04/13 02:35:37;;;;;;;0.60;0.60;;;;;;;5.14;84.41;95766.13;29395;202;63005;-57
2023/04/13 02:36:10;;;;;;;0.60;0.60;;;;;;;5.16;84.23;95770.16;29395;204;63009;-59
2023/04/13 02:36:42;;;;;;;0.52;0.52;;;;;;;5.20;83.83;95765.78;29395;222;63008;-57
2023/04/13 02:37:14;;;;;;;0.60;0.60;;;;;;;5.18;83.92;95762.59;29394;219;64013;-57
2023/04/13 02:37:47;;;;;;;0.60;0.60;;;;;;;5.17;83.95;95761.00;29395;251;63004;-58
2023/04/13 02:38:19;;;;;;;0.60;0.60;;;;;;;5.17;84.34;95758.31;29395;275;63008;-57
2023/04/13 02:38:51;;;;;;;0.50;0.50;;;;;;;5.15;84.28;95762.34;29395;230;63004;-57
2023/04/13 02:39:23;;;;;;;0.60;0.60;;;;;;;5.12;84.70;95763.72;29394;236;64014;-57
2023/04/13 02:39:55;;;;;;;0.60;0.60;;;;;;;5.08;85.05;95767.28;29396;222;63011;-57
2023/04/13 02:40:27;;;;;;;0.60;0.60;;;;;;;5.04;85.29;95762.47;29396;302;63009;-56
2023/04/13 02:41:00;;;;;;;0.50;0.50;;;;;;;5.01;85.28;95763.03;29396;203;63005;-57
2023/04/13 02:41:31;;;;;;;0.60;0.60;;;;;;;5.07;85.16;95766.47;29395;207;64013;-59
2023/04/13 02:42:06;;;;;;;0.60;0.60;;;;;;;5.10;84.66;95768.59;29396;263;63005;-57
2023/04/13 02:42:38;;;;;;;0.60;0.60;;;;;;;5.10;84.74;95763.22;29396;210;63009;-56
2023/04/13 02:43:09;;;;;;;0.57;0.57;;;;;;;5.09;84.59;95764.28;29396;232;63005;-57
2023/04/13 02:43:41;;;;;;;0.50;0.50;;;;;;;5.12;84.33;95768.31;29396;199;63009;-58
2023/04/13 02:44:12;;;;;;;0.50;0.50;;;;;;;5.10;84.41;95760.53;29395;224;64009;-59
2023/04/13 02:44:44;;;;;;;0.60;0.60;;;;;;;5.15;84.24;95768.53;29396;231;63009;-57
2023/04/13 02:45:16;;;;;;;0.60;0.60;;;;;;;5.16;84.02;95766.66;29396;238;63011;-57
2023/04/13 02:45:49;;;;;;;0.60;0.60;;;;;;;5.15;84.27;95767.75;29396;215;63004;-57
2023/04/13 02:46:22;;;;;;;0.60;0.60;;;;;;;5.17;83.88;95763.69;29395;238;64008;-57
2023/04/13 02:46:54;;;;;;;0.60;0.60;;;;;;;5.16;84.17;95772.84;29396;228;63009;-58